Time;durP1;ratioP1;P1;durP2;ratioP2;P2;SDS_P1;SDS_P2;PMS_P1;PMS_P2;Temp;Humidity;BMP_temperature;BMP_pressure;BME280_temperature;BME280_humidity;BME280_pressure;Samples;Min_cycle;Max_cycle;Signal;HPM_P1;HPM_P2
2020/12/22 00:01:47;;;;;;;12.45;8.02;;;;;;;22.12;41.40;95881.38;4926827;29;20404;-77
2020/12/22 00:04:12;;;;;;;15.00;8.57;;;;;;;22.08;40.91;95869.97;4944359;28;20031;-77
2020/12/22 00:06:38;;;;;;;12.50;8.00;;;;;;;22.07;41.50;95873.88;4958780;28;20035;-76
2020/12/22 00:09:03;;;;;;;13.68;8.13;;;;;;;22.05;41.47;95881.78;4959039;28;20038;-76
2020/12/22 00:11:28;;;;;;;12.48;7.80;;;;;;;22.04;41.56;95874.13;4942794;29;20031;-78
2020/12/22 00:13:54;;;;;;;14.73;8.82;;;;;;;22.04;41.55;95880.28;4943697;29;20031;-77
2020/12/22 00:16:19;;;;;;;13.80;8.23;;;;;;;22.04;41.38;95880.28;4943199;28;20029;-77
2020/12/22 00:18:46;;;;;;;13.38;8.50;;;;;;;21.99;41.39;95889.16;4942117;29;20035;-78
2020/12/22 00:21:11;;;;;;;12.30;8.50;;;;;;;22.01;41.42;95886.69;4942632;28;20110;-77
2020/12/22 00:23:36;;;;;;;12.63;8.15;;;;;;;21.98;41.55;95884.94;4942813;29;20524;-77
2020/12/22 00:26:02;;;;;;;14.30;8.68;;;;;;;21.92;41.76;95882.66;4942136;28;20043;-77
2020/12/22 00:28:27;;;;;;;13.10;8.50;;;;;;;21.86;41.71;95884.56;4942391;28;20046;-77
2020/12/22 00:30:53;;;;;;;12.32;7.93;;;;;;;21.81;41.84;95874.34;4942259;29;20031;-76
2020/12/22 00:33:18;;;;;;;13.80;8.77;;;;;;;21.88;41.77;95892.97;4927895;29;20028;-76
2020/12/22 00:35:44;;;;;;;14.38;8.18;;;;;;;21.82;41.87;95889.44;4954584;28;20023;-76
2020/12/22 00:38:09;;;;;;;13.25;8.70;;;;;;;21.83;41.82;95890.94;4943381;29;20051;-77
2020/12/22 00:40:34;;;;;;;13.75;7.93;;;;;;;21.83;41.92;95890.94;4942776;29;20401;-77
2020/12/22 00:43:02;;;;;;;14.15;8.65;;;;;;;21.81;41.72;95887.94;4942781;28;20090;-77
2020/12/22 00:45:29;;;;;;;14.20;8.38;;;;;;;21.78;41.88;95895.09;4958285;28;20035;-77
2020/12/22 00:47:55;;;;;;;12.00;8.27;;;;;;;21.77;41.81;95890.13;4940724;29;20487;-77
2020/12/22 00:50:20;;;;;;;13.68;8.65;;;;;;;21.74;41.81;95896.53;4937821;29;20031;-77
2020/12/22 00:52:45;;;;;;;13.23;8.45;;;;;;;21.76;41.85;95885.91;4959349;28;20423;-77
2020/12/22 00:55:11;;;;;;;14.55;9.52;;;;;;;21.72;41.85;95885.38;4942727;28;20023;-77
2020/12/22 00:57:36;;;;;;;14.90;8.20;;;;;;;21.73;42.00;95892.31;4943905;29;20047;-77
2020/12/22 01:00:05;;;;;;;13.88;8.48;;;;;;;21.73;41.74;95892.31;4942230;29;20050;-76
2020/12/22 01:02:32;;;;;;;12.67;8.30;;;;;;;21.70;41.90;95887.81;4942984;28;20411;-77
2020/12/22 01:04:57;;;;;;;13.73;8.48;;;;;;;21.64;41.97;95876.13;4941909;29;20031;-77
2020/12/22 01:07:23;;;;;;;15.63;8.43;;;;;;;21.68;41.68;95882.13;4935355;29;20035;-77
2020/12/22 01:09:48;;;;;;;13.48;8.48;;;;;;;21.64;41.93;95884.28;4956488;28;20070;-77
2020/12/22 01:12:14;;;;;;;14.43;9.15;;;;;;;21.64;41.88;95884.28;4942110;29;20023;-77
2020/12/22 01:14:39;;;;;;;13.77;8.80;;;;;;;21.63;41.96;95882.81;4956316;28;20094;-78
2020/12/22 01:17:04;;;;;;;19.10;8.85;;;;;;;21.62;41.83;95879.34;4942029;29;20028;-77
2020/12/22 01:19:30;;;;;;;13.82;8.82;;;;;;;21.58;41.98;95880.75;4958080;28;20515;-77
2020/12/22 01:21:55;;;;;;;12.93;8.68;;;;;;;21.58;41.84;95886.97;4942880;28;20417;-77
2020/12/22 01:24:21;;;;;;;15.70;9.15;;;;;;;21.57;41.92;95876.56;4957606;28;20039;-77
2020/12/22 01:26:48;;;;;;;13.90;8.63;;;;;;;21.57;41.92;95880.03;4958798;28;20680;-77
2020/12/22 01:29:13;;;;;;;13.45;8.63;;;;;;;21.55;41.56;95881.72;4961128;28;20039;-77
2020/12/22 01:31:39;;;;;;;13.45;8.30;;;;;;;21.52;41.81;95882.66;4948077;28;20436;-77
2020/12/22 01:34:04;;;;;;;14.85;8.82;;;;;;;21.54;41.96;95885.66;4944993;29;20024;-77
2020/12/22 01:36:30;;;;;;;14.25;8.57;;;;;;;21.53;41.93;95884.16;4944860;29;20031;-77
2020/12/22 01:38:55;;;;;;;13.48;9.05;;;;;;;21.51;41.82;95886.63;4960232;28;20046;-77
2020/12/22 01:41:21;;;;;;;15.43;9.20;;;;;;;21.51;42.03;95881.19;4929424;29;20464;-77
2020/12/22 01:44:11;;;;;;;15.23;9.27;;;;;;;21.49;41.92;95878.19;4946080;28;20097;-77
2020/12/22 01:46:58;;;;;;;15.25;8.77;;;;;;;21.49;41.93;95883.63;4944697;29;20031;-77
2020/12/22 01:49:24;;;;;;;14.68;8.82;;;;;;;21.47;41.95;95880.63;4945836;29;20468;-77
2020/12/22 01:51:50;;;;;;;13.25;8.38;;;;;;;21.47;42.07;95875.19;4929874;29;20420;-77
2020/12/22 01:54:15;;;;;;;14.68;9.20;;;;;;;21.46;42.13;95879.13;4944957;29;20069;-77
2020/12/22 01:56:41;;;;;;;17.25;8.90;;;;;;;21.43;41.87;95874.63;4961111;28;20039;-74
2020/12/22 01:59:06;;;;;;;12.85;8.93;;;;;;;21.46;41.96;95879.13;4949181;28;20031;-78
2020/12/22 02:01:32;;;;;;;13.30;8.82;;;;;;;21.41;41.72;95871.63;4946231;28;20098;-76
2020/12/22 02:03:58;;;;;;;13.02;8.90;;;;;;;21.42;41.70;95878.56;4929344;29;20032;-75
2020/12/22 02:06:24;;;;;;;13.45;8.77;;;;;;;21.42;42.02;95873.13;4945466;28;20031;-75
2020/12/22 02:08:49;;;;;;;15.20;9.27;;;;;;;21.39;42.24;95867.88;4929311;29;20531;-76
2020/12/22 02:11:28;;;;;;;12.60;8.43;;;;;;;21.38;42.28;95863.69;4925904;29;20098;-75
2020/12/22 02:13:54;;;;;;;14.77;9.13;;;;;;;21.37;42.13;95860.22;4943256;29;20043;-76
2020/12/22 02:16:19;;;;;;;12.85;8.10;;;;;;;21.37;41.96;95865.66;4944451;29;20038;-75
2020/12/22 02:18:46;;;;;;;13.02;8.52;;;;;;;21.35;42.19;95868.09;4943267;29;20038;-75
2020/12/22 02:21:11;;;;;;;14.82;9.20;;;;;;;21.33;42.46;95859.69;4944896;29;20122;-76
2020/12/22 02:23:36;;;;;;;14.27;9.20;;;;;;;21.33;41.98;95875.22;4942670;29;20440;-76
2020/12/22 02:26:02;;;;;;;14.25;9.30;;;;;;;21.32;42.01;95869.06;4945702;28;20503;-76
2020/12/22 02:28:27;;;;;;;14.82;8.85;;;;;;;21.34;41.92;95869.31;4943908;29;20035;-77
2020/12/22 02:30:53;;;;;;;15.52;9.38;;;;;;;21.25;42.16;95853.16;4944776;29;20026;-76
2020/12/22 02:33:18;;;;;;;14.30;9.02;;;;;;;21.31;41.95;95856.69;4943287;29;20027;-77
2020/12/22 02:35:44;;;;;;;14.23;9.30;;;;;;;21.32;42.24;95863.63;4945720;28;20488;-77
2020/12/22 02:38:09;;;;;;;13.55;8.55;;;;;;;21.29;42.04;95864.56;4945581;28;20054;-76
2020/12/22 02:40:34;;;;;;;13.60;8.52;;;;;;;21.27;42.40;95856.16;4931918;29;21726;-76
2020/12/22 02:43:10;;;;;;;14.48;8.65;;;;;;;21.28;42.17;95852.19;4938456;29;20500;-75
2020/12/22 02:45:36;;;;;;;13.60;8.73;;;;;;;21.27;42.11;95856.16;4936419;29;20047;-76
2020/12/22 02:48:02;;;;;;;17.10;9.88;;;;;;;21.26;42.17;95860.09;4943701;29;20031;-75
2020/12/22 02:50:27;;;;;;;13.73;9.15;;;;;;;21.27;42.23;95860.81;4945613;29;20028;-76
2020/12/22 02:52:52;;;;;;;14.43;9.07;;;;;;;21.28;42.14;95857.63;4961517;28;20094;-75
2020/12/22 02:55:18;;;;;;;13.57;8.90;;;;;;;21.20;42.44;95844.94;4943425;28;20039;-76
2020/12/22 02:57:43;;;;;;;15.38;9.45;;;;;;;21.25;42.05;95852.41;4947422;29;20031;-76
2020/12/22 03:00:09;;;;;;;15.93;9.18;;;;;;;21.22;42.20;95859.53;4946849;28;20519;-77
2020/12/22 03:02:34;;;;;;;16.25;9.30;;;;;;;;;;4945139;28;20042;-76
2020/12/22 03:04:59;;;;;;;15.60;9.53;;;;;;;;;;4944031;29;20035;-76
2020/12/22 03:07:25;;;;;;;13.77;8.53;;;;;;;21.19;42.18;95844.19;4947825;28;20291;-76
2020/12/22 03:09:50;;;;;;;14.70;9.07;;;;;;;21.18;42.10;95842.69;4943867;29;20679;-76
2020/12/22 03:12:15;;;;;;;14.25;9.02;;;;;;;21.19;42.34;95849.59;4944645;28;20090;-75
2020/12/22 03:14:41;;;;;;;14.98;8.80;;;;;;;21.20;42.23;95845.69;4944459;29;20034;-76
2020/12/22 03:17:06;;;;;;;14.35;8.60;;;;;;;21.17;42.15;95841.19;4945074;29;20026;-76
2020/12/22 03:19:32;;;;;;;15.50;9.25;;;;;;;21.15;42.05;95843.66;4960084;28;21944;-76
2020/12/22 03:21:57;;;;;;;14.18;9.35;;;;;;;21.13;42.25;95832.50;4940174;29;20478;-76
2020/12/22 03:24:22;;;;;;;13.80;9.40;;;;;;;21.16;42.14;95834.25;4942875;29;20039;-75
2020/12/22 03:26:48;;;;;;;13.13;8.50;;;;;;;21.18;42.11;95831.84;4944248;29;20031;-76
2020/12/22 03:29:13;;;;;;;14.63;9.10;;;;;;;21.16;42.22;95823.41;4942460;29;20035;-76
2020/12/22 03:31:39;;;;;;;13.80;8.88;;;;;;;21.12;42.19;95822.88;4959561;28;20078;-75
2020/12/22 03:34:04;;;;;;;14.50;9.00;;;;;;;21.14;42.22;95825.84;4943252;29;20031;-76
2020/12/22 03:36:29;;;;;;;16.05;9.82;;;;;;;21.13;42.17;95829.78;4960315;28;20030;-75
2020/12/22 03:38:55;;;;;;;14.27;8.70;;;;;;;21.14;42.33;95830.53;4928999;29;20044;-75
2020/12/22 03:41:21;;;;;;;14.23;9.27;;;;;;;21.14;42.40;95830.53;4943078;29;20024;-77
2020/12/22 03:43:46;;;;;;;13.43;8.48;;;;;;;21.11;42.21;95832.22;4941698;28;20117;-75
2020/12/22 03:46:12;;;;;;;15.68;9.20;;;;;;;21.12;42.10;95839.16;4941690;28;20038;-75
2020/12/22 03:48:37;;;;;;;12.57;8.35;;;;;;;21.07;42.15;95831.69;4944877;29;20119;-75
2020/12/22 03:51:02;;;;;;;13.60;8.80;;;;;;;21.19;42.13;95836.03;4942827;28;20034;-75
2020/12/22 03:53:28;;;;;;;15.35;9.30;;;;;;;21.22;41.94;95816.06;4944314;29;20160;-75
2020/12/22 03:55:54;;;;;;;14.35;8.55;;;;;;;21.35;41.93;95826.63;4943021;29;20039;-75
2020/12/22 03:58:19;;;;;;;14.27;9.23;;;;;;;21.38;41.91;95826.41;4938043;29;20027;-75
2020/12/22 04:00:45;;;;;;;13.80;8.77;;;;;;;21.44;41.88;95821.78;4942925;29;20420;-77
2020/12/22 04:03:10;;;;;;;13.00;8.88;;;;;;;21.46;42.05;95831.00;4943674;28;20039;-76
2020/12/22 04:05:36;;;;;;;13.07;8.25;;;;;;;21.48;41.84;95822.34;4939755;29;20501;-76
2020/12/22 04:08:01;;;;;;;14.90;8.30;;;;;;;21.52;41.87;95817.44;4959404;28;20547;-76
2020/12/22 04:10:26;;;;;;;14.02;8.10;;;;;;;21.54;42.03;95820.44;4943686;29;20035;-76
2020/12/22 04:12:52;;;;;;;13.27;8.65;;;;;;;21.55;41.90;95821.91;4926748;29;20074;-76
2020/12/22 04:15:17;;;;;;;13.65;8.80;;;;;;;21.57;41.78;95824.94;4943224;29;20106;-77
2020/12/22 04:17:43;;;;;;;13.38;7.95;;;;;;;21.40;42.00;95794.06;4936846;29;20094;-76
2020/12/22 04:20:08;;;;;;;13.10;8.45;;;;;;;21.61;41.88;95822.72;4941303;29;20038;-76
2020/12/22 04:22:33;;;;;;;11.95;7.60;;;;;;;21.64;41.74;95821.78;4942456;28;20008;-76
2020/12/22 04:24:59;;;;;;;11.68;8.10;;;;;;;21.65;41.57;95831.44;4943089;28;20047;-76
2020/12/22 04:27:24;;;;;;;12.63;8.18;;;;;;;21.64;41.65;95825.25;4943974;28;20039;-76
2020/12/22 04:29:50;;;;;;;13.77;8.07;;;;;;;21.65;41.86;95826.00;4937410;29;20050;-76
2020/12/22 04:32:15;;;;;;;11.63;7.75;;;;;;;21.68;41.94;95825.03;4942110;29;20030;-76
2020/12/22 04:34:40;;;;;;;13.23;7.90;;;;;;;21.70;41.99;95828.03;4957656;28;20031;-77
2020/12/22 04:37:06;;;;;;;13.52;7.82;;;;;;;21.71;41.82;95829.53;4934305;28;20030;-76
2020/12/22 04:39:31;;;;;;;13.77;8.55;;;;;;;21.70;41.78;95823.34;4943525;28;20419;-75
2020/12/22 04:41:57;;;;;;;12.50;8.10;;;;;;;21.70;41.74;95822.59;4942060;29;20039;-76
2020/12/22 04:44:22;;;;;;;13.02;8.27;;;;;;;21.72;41.65;95828.28;4941047;29;20035;-75
2020/12/22 04:46:52;;;;;;;13.10;8.10;;;;;;;21.74;41.61;95823.88;4942328;29;20042;-75
2020/12/22 04:49:22;;;;;;;13.53;7.97;;;;;;;21.75;41.83;95819.16;4938673;29;20031;-76
2020/12/22 04:51:48;;;;;;;;;;;;;;;21.77;41.69;95833.03;4924392;29;20279;-75
2020/12/22 04:54:14;;;;;;;11.88;7.85;;;;;;;21.76;41.57;95837.72;4941832;29;19965;-79
2020/12/22 04:56:39;;;;;;;12.77;7.40;;;;;;;21.77;41.63;95838.47;4926063;29;20045;-77
2020/12/22 04:59:05;;;;;;;11.88;7.78;;;;;;;21.77;41.74;95833.03;4940000;29;20024;-76
2020/12/22 05:01:30;;;;;;;14.00;8.35;;;;;;;21.80;41.70;95842.97;4941911;28;20389;-76
2020/12/22 05:03:56;;;;;;;11.60;7.60;;;;;;;21.79;41.63;95836.75;4924771;29;20050;-77
2020/12/22 05:06:21;;;;;;;10.95;7.75;;;;;;;21.79;41.57;95836.03;4941959;29;20043;-77
2020/12/22 05:08:47;;;;;;;12.95;8.35;;;;;;;21.80;41.67;95837.53;4942322;29;20094;-81
2020/12/22 05:11:18;;;;;;;13.10;7.65;;;;;;;21.83;41.51;95847.44;4930260;28;20035;-76
2020/12/22 05:13:46;;;;;;;12.57;8.23;;;;;;;21.80;41.53;95837.53;4956386;28;20043;-76
2020/12/22 05:16:11;;;;;;;12.00;7.30;;;;;;;21.84;41.49;95846.19;4956789;28;20538;-76
2020/12/22 05:18:37;;;;;;;10.60;6.97;;;;;;;21.84;41.58;95840.75;4945733;28;20042;-77
2020/12/22 05:21:02;;;;;;;12.82;7.72;;;;;;;21.84;41.59;95829.88;4960301;28;20043;-77
2020/12/22 05:23:28;;;;;;;12.60;7.50;;;;;;;21.84;41.40;95832.59;4959267;28;20047;-75
2020/12/22 05:25:53;;;;;;;11.63;7.45;;;;;;;21.88;41.50;95833.16;4940983;29;20043;-75
2020/12/22 05:28:20;;;;;;;10.50;7.07;;;;;;;21.82;41.47;95824.19;4940978;28;20035;-75
2020/12/22 05:30:49;;;;;;;12.43;8.18;;;;;;;21.90;41.43;95836.13;4944365;28;20039;-76
2020/12/22 05:33:15;;;;;;;11.18;7.10;;;;;;;21.89;41.40;95829.22;4957793;28;20031;-75
2020/12/22 05:35:42;;;;;;;12.18;7.47;;;;;;;21.91;41.55;95843.81;4926058;29;20038;-76
2020/12/22 05:38:07;;;;;;;12.05;8.20;;;;;;;21.92;41.23;95844.56;4941617;28;20031;-78
2020/12/22 05:40:33;;;;;;;10.23;7.10;;;;;;;21.92;41.44;95844.56;4953878;28;20031;-75
2020/12/22 05:42:59;;;;;;;11.63;7.22;;;;;;;21.92;41.34;95845.31;4925472;29;20484;-76
2020/12/22 05:45:35;;;;;;;10.90;7.07;;;;;;;21.93;41.25;95846.81;4938927;29;20031;-74
2020/12/22 05:48:01;;;;;;;12.68;7.53;;;;;;;21.93;41.19;95847.56;4942184;29;20543;-77
2020/12/22 05:50:27;;;;;;;11.88;7.50;;;;;;;21.95;41.29;95844.34;4920029;29;20054;-77
2020/12/22 05:52:53;;;;;;;13.80;7.72;;;;;;;21.98;41.29;95838.69;4940171;28;20027;-76
2020/12/22 05:55:29;;;;;;;11.52;6.85;;;;;;;21.98;41.14;95844.13;4941061;29;20036;-78
2020/12/22 05:58:11;;;;;;;10.82;7.25;;;;;;;22.02;41.16;95855.56;4926429;29;20071;-76
2020/12/22 06:00:45;;;;;;;10.93;6.80;;;;;;;21.98;41.22;95849.56;4938688;29;20126;-79
2020/12/22 06:03:15;;;;;;;10.48;7.47;;;;;;;21.96;41.13;95852.03;4940673;29;20110;-79
2020/12/22 06:05:44;;;;;;;11.80;7.78;;;;;;;22.00;40.95;95858.00;4941765;28;20031;-78
2020/12/22 06:08:11;;;;;;;11.35;6.95;;;;;;;21.99;41.43;95844.91;4926285;29;20039;-77
2020/12/22 06:10:38;;;;;;;12.52;7.55;;;;;;;22.02;41.13;95847.41;4940568;28;20039;-77
2020/12/22 06:13:04;;;;;;;12.63;7.60;;;;;;;22.00;40.84;95841.69;4938186;28;20027;-78
2020/12/22 06:15:29;;;;;;;12.00;7.45;;;;;;;22.02;41.18;95844.69;4943127;28;20043;-77
2020/12/22 06:17:55;;;;;;;11.52;7.55;;;;;;;22.02;41.10;95835.78;4873693;28;20055;-78
2020/12/22 06:20:21;;;;;;;10.82;7.30;;;;;;;22.03;40.96;95840.75;4931834;29;20043;-78
2020/12/22 06:22:48;;;;;;;11.80;7.88;;;;;;;22.05;40.93;95848.41;4930371;29;20082;-78
2020/12/22 06:25:17;;;;;;;11.45;7.32;;;;;;;22.05;41.01;95843.72;4944222;29;20047;-77
2020/12/22 06:27:42;;;;;;;11.00;7.38;;;;;;;22.08;41.02;95831.13;4927715;29;20496;-79
2020/12/22 06:30:08;;;;;;;11.90;7.10;;;;;;;22.06;40.94;95834.34;4937328;29;20039;-79
2020/12/22 06:32:33;;;;;;;10.82;7.15;;;;;;;22.09;40.82;95833.38;4946796;29;20027;-76
2020/12/22 06:35:27;;;;;;;11.68;7.82;;;;;;;22.11;40.71;95835.63;4944841;29;20047;-78
2020/12/22 06:37:53;;;;;;;15.50;8.60;;;;;;;22.06;40.41;95830.84;4943362;29;20031;-82
2020/12/22 06:40:18;;;;;;;15.10;9.02;;;;;;;22.07;40.41;95830.38;4943723;29;20030;-79
2020/12/22 06:42:45;;;;;;;13.60;9.18;;;;;;;22.09;40.49;95836.09;4945384;29;20058;-81
2020/12/22 06:45:29;;;;;;;16.15;9.18;;;;;;;22.08;40.54;95829.16;4944505;29;20122;-80
2020/12/22 06:47:59;;;;;;;12.07;7.88;;;;;;;22.08;40.71;95821.00;4933025;29;20037;-78
2020/12/22 06:50:38;;;;;;;;;;;;;;;22.10;40.68;95829.41;4927669;29;20039;-77
2020/12/22 06:53:07;;;;;;;12.38;7.90;;;;;;;22.05;40.62;95811.06;4938228;29;19923;-78
2020/12/22 06:55:50;;;;;;;13.68;8.50;;;;;;;22.14;40.88;95829.22;4957795;28;20039;-81
2020/12/22 06:58:35;;;;;;;13.27;8.32;;;;;;;22.15;40.69;95831.47;4943805;29;20082;-77
2020/12/22 07:01:27;;;;;;;13.18;8.60;;;;;;;22.10;40.70;95813.09;4945139;29;20036;-77
2020/12/22 07:03:53;;;;;;;13.30;7.88;;;;;;;22.16;40.90;95815.88;4940707;29;20055;-80
2020/12/22 07:06:49;;;;;;;12.15;7.55;;;;;;;22.21;40.94;95821.41;4945224;28;20042;-78
2020/12/22 07:09:17;;;;;;;13.80;7.45;;;;;;;22.21;40.57;95818.69;4945486;28;20919;-80
2020/12/22 07:11:43;;;;;;;11.82;7.47;;;;;;;22.20;40.49;95817.16;4943434;29;20427;-81
2020/12/22 07:14:08;;;;;;;12.75;7.55;;;;;;;22.32;40.98;95823.47;4956577;28;20030;-77
2020/12/22 07:16:50;;;;;;;11.85;7.43;;;;;;;22.37;40.56;95820.78;4959301;28;20039;-75
2020/12/22 07:19:20;;;;;;;10.65;6.88;;;;;;;22.39;40.84;95818.34;4959642;28;20031;-75
2020/12/22 07:21:46;;;;;;;12.85;8.40;;;;;;;22.45;40.65;95819.09;4941967;29;20035;-76
2020/12/22 07:24:11;;;;;;;11.93;7.57;;;;;;;22.53;40.18;95823.63;4960415;28;20050;-77
2020/12/22 07:26:37;;;;;;;11.52;7.25;;;;;;;22.58;40.14;95819.44;4942409;28;20035;-78
2020/12/22 07:29:04;;;;;;;12.35;7.60;;;;;;;22.64;40.29;95822.97;4943751;28;20065;-75
2020/12/22 07:31:30;;;;;;;11.60;7.30;;;;;;;22.69;40.04;95816.78;4944389;28;20161;-78
2020/12/22 07:33:55;;;;;;;12.65;7.95;;;;;;;22.74;40.30;95819.56;4943994;29;20560;-80
2020/12/22 07:36:21;;;;;;;11.40;7.35;;;;;;;22.81;39.74;95826.53;4945000;28;20031;-77
2020/12/22 07:38:46;;;;;;;11.02;7.10;;;;;;;22.86;40.00;95817.66;4945244;28;20020;-79
2020/12/22 07:41:24;;;;;;;12.10;7.40;;;;;;;22.94;39.70;95825.69;4947204;28;21913;-80
2020/12/22 07:43:50;;;;;;;11.98;7.47;;;;;;;23.02;39.78;95826.69;4945061;28;20045;-76
2020/12/22 07:46:20;;;;;;;12.90;7.55;;;;;;;23.09;39.42;95826.25;4944324;29;20042;-76
2020/12/22 07:48:45;;;;;;;11.50;7.78;;;;;;;23.15;39.32;95824.31;4944215;28;20039;-77
2020/12/22 07:51:11;;;;;;;12.15;7.47;;;;;;;23.22;39.55;95812.19;4926347;29;20039;-82
2020/12/22 07:53:37;;;;;;;11.10;7.43;;;;;;;23.28;39.42;95815.69;4927327;29;20039;-76
2020/12/22 07:56:05;;;;;;;12.35;7.85;;;;;;;23.26;39.03;95818.13;4958150;28;20039;-81
2020/12/22 07:58:31;;;;;;;13.15;8.45;;;;;;;23.27;38.32;95820.38;4943080;29;20083;-81
2020/12/22 08:00:59;;;;;;;13.05;8.60;;;;;;;23.36;38.49;95822.88;4940786;28;22104;-78
2020/12/22 08:03:28;;;;;;;13.48;8.15;;;;;;;23.40;39.00;95823.41;4940375;29;20050;-83
2020/12/22 08:06:00;;;;;;;11.88;7.40;;;;;;;23.48;38.70;95830.66;4945568;28;20078;-78
2020/12/22 08:08:25;;;;;;;12.25;7.97;;;;;;;23.52;38.78;95827.66;4942322;28;20024;-80
2020/12/22 08:10:51;;;;;;;11.15;7.78;;;;;;;23.62;38.80;95839.88;4925585;29;20086;-79
2020/12/22 08:13:16;;;;;;;11.73;7.65;;;;;;;23.65;38.58;95836.19;4943158;28;20060;-81
2020/12/22 08:15:42;;;;;;;11.43;7.20;;;;;;;23.70;38.80;95830.00;4943026;29;20488;-79
2020/12/22 08:18:07;;;;;;;10.73;7.15;;;;;;;23.72;38.08;95824.78;4942167;28;20087;-77
2020/12/22 08:20:34;;;;;;;12.55;7.65;;;;;;;23.78;38.55;95828.28;4940137;29;20031;-80
2020/12/22 08:23:01;;;;;;;10.68;7.50;;;;;;;23.82;37.95;95815.16;4943302;28;20047;-79
2020/12/22 08:25:27;;;;;;;10.82;6.75;;;;;;;23.86;37.82;95811.69;4940612;28;20046;-79
2020/12/22 08:27:55;;;;;;;11.23;7.68;;;;;;;23.83;38.24;95800.28;4919767;29;20477;-78
2020/12/22 08:30:21;;;;;;;12.82;7.75;;;;;;;23.95;37.93;95803.28;4927372;29;20027;-77
2020/12/22 08:32:46;;;;;;;12.07;8.23;;;;;;;23.89;37.72;95799.78;4939129;29;20424;-76
2020/12/22 08:35:13;;;;;;;11.15;7.60;;;;;;;24.02;37.85;95797.34;4924635;29;20042;-79
2020/12/22 08:37:38;;;;;;;14.40;7.93;;;;;;;24.05;37.66;95801.81;4929494;29;20027;-80
2020/12/22 08:40:04;;;;;;;13.73;9.02;;;;;;;24.03;37.46;95787.88;4942587;28;20035;-78
2020/12/22 08:42:30;;;;;;;13.25;8.35;;;;;;;24.16;37.36;95795.63;4941977;29;20035;-77
2020/12/22 08:44:55;;;;;;;12.32;8.13;;;;;;;24.13;37.79;95800.06;4945059;28;20027;-79
2020/12/22 08:47:21;;;;;;;11.40;7.38;;;;;;;24.17;37.67;95791.63;4926002;29;20050;-78
2020/12/22 08:49:46;;;;;;;11.80;7.75;;;;;;;24.24;37.76;95799.31;4936605;29;20034;-79
2020/12/22 08:52:17;;;;;;;12.52;8.23;;;;;;;24.21;37.46;95792.88;4956063;28;20031;-80
2020/12/22 08:54:43;;;;;;;13.48;8.02;;;;;;;24.31;37.20;95813.22;4933417;28;20046;-80
2020/12/22 08:57:16;;;;;;;12.80;8.32;;;;;;;24.25;37.14;95798.84;4941703;29;20405;-85
2020/12/22 08:59:42;;;;;;;13.20;8.82;;;;;;;24.29;37.03;95804.81;4941506;29;20114;-83
2020/12/22 09:02:20;;;;;;;15.32;8.55;;;;;;;24.30;37.39;95800.81;4953456;29;20059;-78
2020/12/22 09:04:46;;;;;;;11.65;8.10;;;;;;;24.34;37.58;95806.81;4946236;29;20031;-85
2020/12/22 09:07:11;;;;;;;13.93;8.77;;;;;;;24.36;37.04;95804.31;4943124;28;20039;-82
2020/12/22 09:09:37;;;;;;;12.45;7.72;;;;;;;24.37;37.22;95800.34;4942006;28;20031;-82
2020/12/22 09:12:09;;;;;;;12.05;8.07;;;;;;;24.43;37.54;95798.38;4956806;28;20039;-79
2020/12/22 09:14:45;;;;;;;11.43;8.02;;;;;;;24.41;36.90;95798.13;4939355;29;20400;-78
2020/12/22 09:17:11;;;;;;;11.98;8.07;;;;;;;24.48;37.08;95800.34;4924871;29;20123;-80
2020/12/22 09:19:49;;;;;;;12.55;8.10;;;;;;;24.50;36.96;95803.34;4905110;28;20460;-80
2020/12/22 09:22:31;;;;;;;13.95;8.43;;;;;;;24.56;36.91;95801.34;4957887;28;20762;-80
2020/12/22 09:24:57;;;;;;;12.73;8.18;;;;;;;24.53;37.19;95799.63;4941792;28;20060;-79
2020/12/22 09:27:29;;;;;;;12.65;8.50;;;;;;;24.60;37.08;95790.91;4928545;29;20039;-76
2020/12/22 09:29:55;;;;;;;12.95;8.30;;;;;;;24.58;36.84;95788.66;4938468;29;20117;-77
2020/12/22 09:32:20;;;;;;;12.15;7.88;;;;;;;24.58;36.81;95793.41;4944834;28;20075;-79
2020/12/22 09:34:46;;;;;;;11.73;8.00;;;;;;;24.53;37.22;95785.97;4943752;28;20231;-79
2020/12/22 09:37:11;;;;;;;11.40;7.95;;;;;;;24.58;36.61;95793.41;4924169;29;20432;-78
2020/12/22 09:39:37;;;;;;;11.18;7.50;;;;;;;24.60;36.64;95780.75;4942809;28;20480;-83
2020/12/22 09:42:03;;;;;;;11.52;7.75;;;;;;;24.61;37.04;95781.47;4943734;28;20071;-82
2020/12/22 09:44:28;;;;;;;16.15;8.77;;;;;;;24.58;36.62;95772.28;4939802;28;20039;-82
2020/12/22 09:46:54;;;;;;;12.55;8.05;;;;;;;24.64;36.74;95780.47;4939478;29;20054;-80
2020/12/22 09:49:20;;;;;;;14.38;8.10;;;;;;;24.62;36.72;95783.72;4959243;28;20038;-79
2020/12/22 09:51:46;;;;;;;12.07;7.65;;;;;;;24.61;36.92;95786.94;4944705;28;20045;-78
2020/12/22 09:54:11;;;;;;;13.82;8.90;;;;;;;24.59;36.78;95783.97;4941959;29;20113;-88
2020/12/22 09:56:37;;;;;;;11.75;8.02;;;;;;;24.63;37.03;95782.44;4927230;29;20042;-79
2020/12/22 09:59:03;;;;;;;12.48;8.32;;;;;;;24.66;36.61;95783.44;4945377;28;20033;-77
2020/12/22 10:01:28;;;;;;;11.02;7.78;;;;;;;24.68;37.21;95780.94;4961179;28;20086;-75
2020/12/22 10:03:54;;;;;;;12.23;8.10;;;;;;;24.71;36.46;95777.22;4949467;28;20042;-75
2020/12/22 10:06:20;;;;;;;12.77;7.78;;;;;;;24.72;36.70;95781.44;4946820;28;20082;-79
2020/12/22 10:08:46;;;;;;;15.95;7.93;;;;;;;24.74;36.75;95773.50;4946095;28;20047;-78
2020/12/22 10:11:11;;;;;;;13.18;7.88;;;;;;;24.79;36.85;95770.03;4961008;28;20037;-77
2020/12/22 10:13:37;;;;;;;13.32;8.15;;;;;;;24.79;36.56;95770.03;4944240;29;20106;-78
2020/12/22 10:16:07;;;;;;;11.82;7.40;;;;;;;24.77;37.04;95762.31;4945735;29;20038;-79
2020/12/22 10:18:32;;;;;;;14.15;8.30;;;;;;;24.78;37.18;95760.34;4932455;29;20181;-77
2020/12/22 10:21:02;;;;;;;14.05;8.02;;;;;;;24.82;37.46;95754.09;4943773;29;20122;-79
2020/12/22 10:23:28;;;;;;;;;;;;;;;24.83;37.31;95755.59;4944029;28;20126;-80
2020/12/22 10:25:53;;;;;;;12.83;7.57;;;;;;;24.84;37.10;95751.63;4959209;28;20020;-85
2020/12/22 10:28:19;;;;;;;13.68;7.65;;;;;;;24.86;36.97;95743.66;4927286;29;20326;-79
2020/12/22 10:30:44;;;;;;;14.27;7.72;;;;;;;24.91;37.14;95744.91;4943573;29;20541;-81
2020/12/22 10:33:09;;;;;;;12.82;7.70;;;;;;;24.90;36.98;95733.22;4943051;29;20032;-84
2020/12/22 10:35:35;;;;;;;13.27;7.78;;;;;;;24.86;37.19;95738.19;4944192;29;20035;-86
2020/12/22 10:38:01;;;;;;;10.60;7.68;;;;;;;24.86;37.15;95742.94;4944398;29;20082;-83
2020/12/22 10:40:26;;;;;;;12.13;7.97;;;;;;;24.84;37.01;95739.94;4943118;29;20027;-81
2020/12/22 10:42:51;;;;;;;11.77;7.60;;;;;;;24.87;37.12;95741.66;4942667;29;20027;-80
2020/12/22 10:45:17;;;;;;;14.95;8.18;;;;;;;24.85;37.36;95747.63;4927685;29;20666;-83
2020/12/22 10:47:42;;;;;;;13.35;8.10;;;;;;;24.91;37.15;95745.63;4943545;29;20546;-84
2020/12/22 10:50:08;;;;;;;12.80;7.82;;;;;;;24.90;37.31;95738.69;4945283;28;20087;-82
2020/12/22 10:52:33;;;;;;;12.48;7.72;;;;;;;24.88;37.05;95734.97;4927106;29;20492;-80
2020/12/22 10:54:59;;;;;;;13.55;8.57;;;;;;;24.95;36.62;95740.66;4929528;29;20106;-87
2020/12/22 10:57:25;;;;;;;10.95;7.20;;;;;;;24.95;37.21;95735.19;4955044;28;20139;-79
2020/12/22 10:59:50;;;;;;;12.68;8.25;;;;;;;25.00;37.14;95730.97;4926688;29;20050;-76
2020/12/22 11:02:16;;;;;;;15.38;7.93;;;;;;;25.05;36.88;95717.31;4942726;29;20397;-77
2020/12/22 11:04:42;;;;;;;15.30;7.43;;;;;;;25.09;37.02;95712.31;4945475;28;20817;-78
2020/12/22 11:07:15;;;;;;;13.50;8.10;;;;;;;25.10;36.64;95713.81;4945448;28;20514;-79
2020/12/22 11:09:44;;;;;;;13.18;8.02;;;;;;;25.06;36.66;95707.84;4942856;29;20027;-79
2020/12/22 11:12:09;;;;;;;12.80;8.23;;;;;;;25.03;37.11;95706.13;4943849;28;20031;-78
2020/12/22 11:14:35;;;;;;;15.55;8.38;;;;;;;25.01;36.84;95708.63;4928702;29;20110;-79
2020/12/22 11:17:00;;;;;;;12.35;7.93;;;;;;;24.97;37.11;95694.44;4940132;29;20043;-79
2020/12/22 11:19:26;;;;;;;12.25;7.38;;;;;;;24.98;36.87;95695.94;4929721;29;20019;-78
2020/12/22 11:21:51;;;;;;;12.25;8.07;;;;;;;25.01;36.77;95700.41;4941066;29;20508;-78
2020/12/22 11:24:16;;;;;;;13.05;8.00;;;;;;;24.99;36.85;95686.53;4959651;28;20076;-79
2020/12/22 11:26:42;;;;;;;13.25;9.05;;;;;;;25.05;37.02;95683.75;4943358;29;20468;-77